createdAt,value
2022-11-05T00:00:15.687Z,8.73
2022-11-05T00:03:00.536Z,8.67
2022-11-05T00:05:46.633Z,8.97
2022-11-05T00:08:32.702Z,9.20
2022-11-05T00:11:01.368Z,9.20
2022-11-05T00:13:48.499Z,9.37
2022-11-05T00:16:36.544Z,9.70
2022-11-05T00:19:07.673Z,9.27
2022-11-05T00:21:54.761Z,10.33
2022-11-05T00:24:40.989Z,10.53
2022-11-05T00:27:10.606Z,10.33
2022-11-05T00:29:40.318Z,10.93
2022-11-05T00:32:08.666Z,10.77
2022-11-05T00:34:37.122Z,11.40
2022-11-05T00:37:05.857Z,11.13
2022-11-05T00:39:34.304Z,10.47
2022-11-05T00:42:19.843Z,10.47
2022-11-05T00:45:04.550Z,11.97
2022-11-05T00:47:52.111Z,10.43
2022-11-05T00:50:22.545Z,10.50
2022-11-05T00:52:59.301Z,10.80
2022-11-05T00:55:30.838Z,10.13
2022-11-05T00:57:59.531Z,9.87
2022-11-05T01:00:30.981Z,9.73
2022-11-05T01:03:00.818Z,9.07
2022-11-05T01:05:39.327Z,8.60
2022-11-05T01:08:08.977Z,10.27
2022-11-05T01:10:41.714Z,9.20
2022-11-05T01:13:13.213Z,8.80
2022-11-05T01:15:43.750Z,8.47
2022-11-05T01:18:12.398Z,8.83
2022-11-05T01:20:41.431Z,8.87
2022-11-05T01:23:13.592Z,8.90
2022-11-05T01:25:42.629Z,8.77
2022-11-05T01:28:11.386Z,9.13
2022-11-05T01:30:40.435Z,8.87
2022-11-05T01:33:11.689Z,8.60
2022-11-05T01:35:40.941Z,8.20
2022-11-05T01:38:09.206Z,8.67
2022-11-05T01:40:37.475Z,8.80
2022-11-05T01:43:13.657Z,8.53
2022-11-05T01:45:42.995Z,7.93
2022-11-05T01:48:16.970Z,8.97
2022-11-05T01:50:49.583Z,8.60
2022-11-05T01:53:26.023Z,8.77
2022-11-05T01:55:58.732Z,9.00
2022-11-05T01:58:32.671Z,8.40
2022-11-05T02:01:01.313Z,8.27
2022-11-05T02:03:31.719Z,8.77
2022-11-05T02:06:01.993Z,8.67
2022-11-05T02:08:49.805Z,9.20
2022-11-05T02:11:20.887Z,9.43
2022-11-05T02:13:50.375Z,9.70
2022-11-05T02:16:29.888Z,9.60
2022-11-05T02:19:07.760Z,8.30
2022-11-05T02:22:13.467Z,9.03
2022-11-05T02:25:10.688Z,9.30
2022-11-05T02:28:16.149Z,9.50
2022-11-05T02:30:50.426Z,9.40
2022-11-05T02:33:36.798Z,9.53
2022-11-05T02:36:34.549Z,10.10
2022-11-05T02:39:14.508Z,9.73
2022-11-05T02:41:51.169Z,8.83
2022-11-05T02:44:28.675Z,9.17
2022-11-05T02:47:06.813Z,9.93
2022-11-05T02:49:42.383Z,9.33
2022-11-05T02:52:17.420Z,9.40
2022-11-05T02:54:53.719Z,10.13
2022-11-05T02:57:23.659Z,10.10
2022-11-05T03:00:02.159Z,10.30
2022-11-05T03:02:32.322Z,11.17
2022-11-05T03:05:01.213Z,9.93
2022-11-05T03:07:41.868Z,10.20
2022-11-05T03:10:34.784Z,9.43
2022-11-05T03:13:18.279Z,10.03
2022-11-05T03:15:55.865Z,9.80
2022-11-05T03:18:31.612Z,9.70
2022-11-05T03:21:06.387Z,11.20
2022-11-05T03:23:40.467Z,11.13
2022-11-05T03:26:17.697Z,11.27
2022-11-05T03:28:50.035Z,12.10
2022-11-05T03:31:19.854Z,10.80
2022-11-05T03:33:50.893Z,10.73
2022-11-05T03:36:25.815Z,12.37
2022-11-05T03:38:57.285Z,12.93
2022-11-05T03:41:26.667Z,12.33
2022-11-05T03:43:59.654Z,11.93
2022-11-05T03:46:30.985Z,11.83
2022-11-05T03:49:05.002Z,11.73
2022-11-05T03:51:39.831Z,11.70
2022-11-05T03:54:08.619Z,11.87
2022-11-05T03:56:41.329Z,11.47
2022-11-05T03:59:11.878Z,13.00
2022-11-05T04:01:40.552Z,13.23
2022-11-05T04:04:12.228Z,13.23
2022-11-05T04:06:58.096Z,14.20
2022-11-05T04:09:43.652Z,14.57
2022-11-05T04:12:29.660Z,13.23
2022-11-05T04:14:57.925Z,15.97
2022-11-05T04:17:25.194Z,17.60
2022-11-05T04:20:12.476Z,18.23
2022-11-05T04:22:57.895Z,18.97
2022-11-05T04:25:26.132Z,17.70
2022-11-05T04:27:54.516Z,20.00
2022-11-05T04:30:22.789Z,19.57
2022-11-05T04:33:06.867Z,17.93
2022-11-05T04:35:38.602Z,17.53
2022-11-05T04:38:09.158Z,18.00
2022-11-05T04:40:38.109Z,15.57
2022-11-05T04:43:13.634Z,15.13
2022-11-05T04:45:43.668Z,13.73
2022-11-05T04:48:12.483Z,14.67
2022-11-05T04:50:42.173Z,14.57
2022-11-05T04:53:10.645Z,15.27
2022-11-05T04:55:39.175Z,14.73
2022-11-05T04:58:07.475Z,13.93
2022-11-05T05:00:35.766Z,13.17
2022-11-05T05:03:04.195Z,13.53
2022-11-05T05:05:32.503Z,11.43
2022-11-05T05:08:04.604Z,12.00
2022-11-05T05:10:33.193Z,11.90
2022-11-05T05:13:01.452Z,11.23
2022-11-05T05:15:29.905Z,11.00
2022-11-05T05:17:58.153Z,12.17
2022-11-05T05:20:44.140Z,11.93
2022-11-05T05:23:13.894Z,10.90
2022-11-05T05:25:42.292Z,10.40
2022-11-05T05:28:10.758Z,8.97
2022-11-05T05:30:39.059Z,10.57
2022-11-05T05:33:07.617Z,10.70
2022-11-05T05:35:36.112Z,10.60
2022-11-05T05:38:04.523Z,10.43
2022-11-05T05:40:34.192Z,11.33
2022-11-05T05:43:02.455Z,11.03
2022-11-05T05:45:30.665Z,10.73
2022-11-05T05:47:58.885Z,10.10
2022-11-05T05:50:27.082Z,11.13
2022-11-05T05:52:55.316Z,10.80
2022-11-05T05:55:23.512Z,10.30
2022-11-05T05:57:53.116Z,10.30
2022-11-05T06:00:22.683Z,8.73
2022-11-05T06:02:52.386Z,9.47
2022-11-05T06:05:20.675Z,9.50
2022-11-05T06:07:55.597Z,8.43
2022-11-05T06:10:24.140Z,7.53
2022-11-05T06:12:53.831Z,8.23
2022-11-05T06:15:22.317Z,9.33
2022-11-05T06:17:50.580Z,8.00
2022-11-05T06:20:20.100Z,8.60
2022-11-05T06:22:55.757Z,8.93
2022-11-05T06:25:24.578Z,8.47
2022-11-05T06:27:54.622Z,8.70
2022-11-05T06:30:24.052Z,8.30
2022-11-05T06:32:52.652Z,9.60
2022-11-05T06:35:20.952Z,8.00
2022-11-05T06:37:49.176Z,8.43
2022-11-05T06:40:17.593Z,8.70
2022-11-05T06:42:45.898Z,8.40
2022-11-05T06:45:15.644Z,7.73
2022-11-05T06:47:43.912Z,8.70
2022-11-05T06:50:12.139Z,8.43
2022-11-05T06:52:41.394Z,8.23
2022-11-05T06:55:10.471Z,8.13
2022-11-05T06:57:42.659Z,8.37
2022-11-05T07:00:11.761Z,8.70
2022-11-05T07:02:42.407Z,9.73
2022-11-05T07:05:11.915Z,9.43
2022-11-05T07:07:40.912Z,10.30
2022-11-05T07:10:12.542Z,10.70
2022-11-05T07:12:40.899Z,11.10
2022-11-05T07:15:10.521Z,11.93
2022-11-05T07:17:39.064Z,12.27
2022-11-05T07:20:10.829Z,12.27
2022-11-05T07:22:39.386Z,13.23
2022-11-05T07:25:08.617Z,14.87
2022-11-05T07:27:40.695Z,14.70
2022-11-05T07:30:10.813Z,14.87
2022-11-05T07:32:40.000Z,15.30
2022-11-05T07:35:11.102Z,15.83
2022-11-05T07:37:46.268Z,15.37
2022-11-05T07:40:15.599Z,14.97
2022-11-05T07:42:45.857Z,15.60
2022-11-05T07:45:14.343Z,15.60
2022-11-05T07:47:47.937Z,14.93
2022-11-05T07:50:18.265Z,15.17
2022-11-05T07:52:47.992Z,15.30
2022-11-05T07:55:20.611Z,15.00
2022-11-05T07:57:50.688Z,16.17
2022-11-05T08:00:21.551Z,15.73
2022-11-05T08:03:05.566Z,14.70
2022-11-05T08:05:38.851Z,15.90
2022-11-05T08:08:09.160Z,13.50
2022-11-05T08:10:38.561Z,14.90
2022-11-05T08:13:08.119Z,15.30
2022-11-05T08:15:36.865Z,14.53
2022-11-05T08:18:06.801Z,14.53
2022-11-05T08:20:38.570Z,16.33
2022-11-05T08:23:07.511Z,17.87
2022-11-05T08:25:36.318Z,24.00
2022-11-05T08:28:07.485Z,18.23
2022-11-05T08:30:36.621Z,15.50
2022-11-05T08:33:07.085Z,16.20
2022-11-05T08:35:38.400Z,15.37
2022-11-05T08:38:08.996Z,15.63
2022-11-05T08:40:38.304Z,14.63
2022-11-05T08:43:09.867Z,14.83
2022-11-05T08:45:39.532Z,15.50
2022-11-05T08:48:10.502Z,15.20
2022-11-05T08:50:40.780Z,15.43
2022-11-05T08:53:10.889Z,14.57
2022-11-05T08:55:39.754Z,14.63
2022-11-05T08:58:12.515Z,15.00
2022-11-05T09:00:42.024Z,15.17
2022-11-05T09:03:11.616Z,14.70
2022-11-05T09:05:43.034Z,15.47
2022-11-05T09:08:12.976Z,14.73
2022-11-05T09:10:42.646Z,13.07
2022-11-05T09:13:17.838Z,15.37
2022-11-05T09:15:48.044Z,14.10
2022-11-05T09:18:17.353Z,11.10
2022-11-05T09:20:47.667Z,11.23
2022-11-05T09:23:16.151Z,11.30
2022-11-05T09:25:46.726Z,9.80
2022-11-05T09:28:17.520Z,11.50
2022-11-05T09:30:48.051Z,11.37
2022-11-05T09:33:18.893Z,10.23
2022-11-05T09:35:49.168Z,14.67
2022-11-05T09:38:17.822Z,10.40
2022-11-05T09:40:53.519Z,10.70
2022-11-05T09:43:31.221Z,12.20
2022-11-05T09:46:04.327Z,10.80
2022-11-05T09:48:34.929Z,10.30
2022-11-05T09:51:06.399Z,10.47
2022-11-05T09:53:40.326Z,10.87
2022-11-05T09:56:23.112Z,10.37
2022-11-05T09:58:55.708Z,10.80
2022-11-05T10:01:28.279Z,10.67
2022-11-05T10:04:00.434Z,10.30
2022-11-05T10:06:30.344Z,10.47
2022-11-05T10:09:06.669Z,11.10
2022-11-05T10:11:41.287Z,10.60
2022-11-05T10:14:17.874Z,12.13
2022-11-05T10:16:52.570Z,15.50
2022-11-05T10:19:25.130Z,15.53
2022-11-05T10:22:06.941Z,10.13
2022-11-05T10:24:46.421Z,11.43
2022-11-05T10:27:18.765Z,10.87
2022-11-05T10:29:48.011Z,15.20
2022-11-05T10:32:26.642Z,13.20
2022-11-05T10:34:58.426Z,9.80
2022-11-05T10:37:29.856Z,10.70
2022-11-05T10:39:58.537Z,8.57
2022-11-05T10:42:41.812Z,8.70
2022-11-05T10:45:22.245Z,7.87
2022-11-05T10:48:01.075Z,6.73
2022-11-05T10:50:30.720Z,6.50
2022-11-05T10:53:03.026Z,6.10
2022-11-05T10:55:33.798Z,6.30
2022-11-05T10:58:10.683Z,5.93
2022-11-05T11:00:39.439Z,6.30
2022-11-05T11:03:36.026Z,6.13
2022-11-05T11:06:07.770Z,5.05
2022-11-05T11:08:37.862Z,6.63
2022-11-05T11:11:11.509Z,5.93
2022-11-05T11:13:59.635Z,7.22
2022-11-05T11:16:30.835Z,7.18
2022-11-05T11:19:01.101Z,8.88
2022-11-05T11:21:31.043Z,11.83
2022-11-05T11:24:03.356Z,6.30
2022-11-05T11:26:34.505Z,8.57
2022-11-05T11:29:08.581Z,9.13
2022-11-05T11:31:40.680Z,12.60
2022-11-05T11:34:18.068Z,8.10
2022-11-05T11:36:48.864Z,6.97
2022-11-05T11:39:20.717Z,6.20
2022-11-05T11:41:53.393Z,5.10
2022-11-05T11:44:26.929Z,4.80
2022-11-05T11:46:58.365Z,5.60
2022-11-05T11:49:34.076Z,8.07
2022-11-05T11:52:08.174Z,4.63
2022-11-05T11:54:38.000Z,8.80
2022-11-05T11:57:22.584Z,6.17
2022-11-05T12:02:56.001Z,8.90
2022-11-05T12:05:37.439Z,6.60
2022-11-05T12:08:18.151Z,10.17
2022-11-05T12:10:56.873Z,8.00
2022-11-05T12:13:56.953Z,8.30
2022-11-05T12:16:52.518Z,5.70
2022-11-05T12:19:41.802Z,5.00
2022-11-05T12:22:19.376Z,5.30
2022-11-05T12:25:06.820Z,5.07
2022-11-05T12:27:59.001Z,5.50
2022-11-05T12:30:36.230Z,4.80
2022-11-05T12:33:28.407Z,5.60
2022-11-05T12:36:10.141Z,4.23
2022-11-05T12:39:00.039Z,3.90
2022-11-05T12:41:33.515Z,3.77
2022-11-05T12:44:16.977Z,3.97
2022-11-05T12:46:59.769Z,3.20
2022-11-05T12:49:47.978Z,3.30
2022-11-05T12:52:52.884Z,3.17
2022-11-05T12:55:24.467Z,3.10
2022-11-05T12:57:56.239Z,3.00
2022-11-05T13:00:28.217Z,2.70
2022-11-05T13:03:07.191Z,3.00
2022-11-05T13:05:38.563Z,2.90
2022-11-05T13:08:11.247Z,2.53
2022-11-05T13:10:45.543Z,3.10
2022-11-05T13:13:19.145Z,3.63
2022-11-05T13:15:52.867Z,2.90
2022-11-05T13:18:27.594Z,3.20
2022-11-05T13:20:57.682Z,3.50
2022-11-05T13:23:33.486Z,3.70
2022-11-05T13:26:08.363Z,6.43
2022-11-05T13:28:45.386Z,3.50
2022-11-05T13:31:19.907Z,3.70
2022-11-05T13:33:50.744Z,4.35
2022-11-05T13:36:41.688Z,3.83
2022-11-05T13:39:17.782Z,3.63
2022-11-05T13:42:00.439Z,3.55
2022-11-05T13:44:58.639Z,3.35
2022-11-05T13:47:54.288Z,3.50
2022-11-05T13:50:47.680Z,4.72
2022-11-05T13:53:39.669Z,4.15
2022-11-05T13:56:23.171Z,5.18
2022-11-05T13:59:04.037Z,5.10
2022-11-05T14:01:50.072Z,5.30
2022-11-05T14:04:33.562Z,5.45
2022-11-05T14:07:11.224Z,6.15
2022-11-05T14:09:41.375Z,5.40
2022-11-05T14:12:20.958Z,6.50
2022-11-05T14:14:58.844Z,6.00
2022-11-05T14:17:33.052Z,6.70
2022-11-05T14:20:25.259Z,7.13
2022-11-05T14:22:54.400Z,7.10
2022-11-05T14:25:55.768Z,6.50
2022-11-05T14:28:47.471Z,6.27
2022-11-05T14:31:47.219Z,7.57
2022-11-05T14:34:23.905Z,7.57
2022-11-05T14:37:25.624Z,6.73
2022-11-05T14:39:55.494Z,7.37
2022-11-05T14:42:27.709Z,7.00
2022-11-05T14:45:23.637Z,6.07
2022-11-05T14:47:55.379Z,7.43
2022-11-05T14:50:31.697Z,9.00
2022-11-05T14:53:13.532Z,7.43
2022-11-05T14:55:44.596Z,9.30
2022-11-05T14:58:36.828Z,13.60
2022-11-05T15:01:07.728Z,6.15
2022-11-05T15:04:01.873Z,6.15
2022-11-05T15:06:33.394Z,5.18
2022-11-05T15:09:19.466Z,5.60
2022-11-05T15:12:00.240Z,4.90
2022-11-05T15:14:33.718Z,5.65
2022-11-05T15:17:13.299Z,7.05
2022-11-05T15:19:43.642Z,6.87
2022-11-05T15:22:25.475Z,6.47
2022-11-05T15:24:55.799Z,6.87
2022-11-05T15:27:40.844Z,5.93
2022-11-05T15:30:17.263Z,11.00
2022-11-05T15:32:45.645Z,31.57
2022-11-05T15:35:26.943Z,40.67
2022-11-05T15:38:02.199Z,83.70
2022-11-05T15:40:33.717Z,42.00
2022-11-05T15:43:17.423Z,9.20
2022-11-05T15:45:59.411Z,20.60
2022-11-05T15:48:28.577Z,10.77
2022-11-05T15:50:57.341Z,8.13
2022-11-05T15:53:56.085Z,7.30
2022-11-05T15:56:28.196Z,8.60
2022-11-05T15:59:00.719Z,10.33
2022-11-05T16:01:32.827Z,13.87
2022-11-05T16:04:09.731Z,17.97
2022-11-05T16:06:40.913Z,19.43
2022-11-05T16:09:20.321Z,19.27
2022-11-05T16:11:51.118Z,16.30
2022-11-05T16:14:21.446Z,18.10
2022-11-05T16:16:49.910Z,14.73
2022-11-05T16:19:40.853Z,13.60
2022-11-05T16:22:10.220Z,10.60
2022-11-05T16:24:38.992Z,9.20
2022-11-05T16:27:19.395Z,8.73
2022-11-05T16:29:53.948Z,11.20
2022-11-05T16:32:30.236Z,8.20
2022-11-05T16:35:02.309Z,9.53
2022-11-05T16:37:46.324Z,9.67
2022-11-05T16:40:18.514Z,9.13
2022-11-05T16:42:51.275Z,8.90
2022-11-05T16:45:22.898Z,9.73
2022-11-05T16:47:51.716Z,10.83
2022-11-05T16:50:27.628Z,10.13
2022-11-05T16:52:56.094Z,12.80
2022-11-05T16:55:24.641Z,13.10
2022-11-05T16:57:56.645Z,12.60
2022-11-05T17:00:26.344Z,19.47
2022-11-05T17:02:55.183Z,9.27
2022-11-05T17:05:26.264Z,9.17
2022-11-05T17:07:55.350Z,10.57
2022-11-05T17:10:25.158Z,9.97
2022-11-05T17:12:55.274Z,16.87
2022-11-05T17:15:25.953Z,41.47
2022-11-05T17:17:55.374Z,20.00
2022-11-05T17:20:42.744Z,17.77
2022-11-05T17:23:12.617Z,23.67
2022-11-05T17:25:42.220Z,13.07
2022-11-05T17:28:13.908Z,12.27
2022-11-05T17:30:46.643Z,11.73
2022-11-05T17:33:20.107Z,14.47
2022-11-05T17:35:50.129Z,14.10
2022-11-05T17:38:21.961Z,15.40
2022-11-05T17:40:50.618Z,14.93
2022-11-05T17:43:20.726Z,14.83
2022-11-05T17:45:52.088Z,15.50
2022-11-05T17:48:22.551Z,19.10
2022-11-05T17:50:51.853Z,22.10
2022-11-05T17:53:21.193Z,20.73
2022-11-05T17:55:50.559Z,34.80
2022-11-05T17:58:21.429Z,34.87
2022-11-05T18:00:50.029Z,35.93
2022-11-05T18:03:18.686Z,32.90
2022-11-05T18:05:47.264Z,34.20
2022-11-05T18:08:15.660Z,34.80
2022-11-05T18:10:44.118Z,36.83
2022-11-05T18:13:13.004Z,35.70
2022-11-05T18:15:43.629Z,33.67
2022-11-05T18:18:12.228Z,34.27
2022-11-05T18:20:44.492Z,33.90
2022-11-05T18:23:14.246Z,26.17
2022-11-05T18:25:44.209Z,22.17
2022-11-05T18:28:12.828Z,21.07
2022-11-05T18:30:43.119Z,19.67
2022-11-05T18:33:11.913Z,18.43
2022-11-05T18:35:46.301Z,20.13
2022-11-05T18:38:15.535Z,18.20
2022-11-05T18:40:44.195Z,18.87
2022-11-05T18:43:13.051Z,18.00
2022-11-05T18:45:43.035Z,18.37
2022-11-05T18:48:12.211Z,18.63
2022-11-05T18:50:41.003Z,17.70
2022-11-05T18:53:09.726Z,18.10
2022-11-05T18:55:40.227Z,19.10
2022-11-05T18:58:09.890Z,22.00
2022-11-05T19:00:41.422Z,21.27
2022-11-05T19:03:11.471Z,21.40
2022-11-05T19:05:40.994Z,21.67
2022-11-05T19:08:09.599Z,20.37
2022-11-05T19:10:41.272Z,22.07
2022-11-05T19:13:09.669Z,22.67
2022-11-05T19:15:38.262Z,22.20
2022-11-05T19:18:06.944Z,23.87
2022-11-05T19:20:37.909Z,24.33
2022-11-05T19:23:07.017Z,24.70
2022-11-05T19:25:37.917Z,29.43
2022-11-05T19:28:07.018Z,28.87
2022-11-05T19:30:35.780Z,24.40
2022-11-05T19:33:04.352Z,28.13
2022-11-05T19:35:35.708Z,31.40
2022-11-05T19:38:10.372Z,31.57
2022-11-05T19:40:39.067Z,27.30
2022-11-05T19:43:07.468Z,29.30
2022-11-05T19:45:44.534Z,33.23
2022-11-05T19:48:19.059Z,32.50
2022-11-05T19:50:48.808Z,30.10
2022-11-05T19:53:18.739Z,30.30
2022-11-05T19:55:47.072Z,29.57
2022-11-05T19:58:15.999Z,35.20
2022-11-05T20:00:44.773Z,36.37
2022-11-05T20:03:14.305Z,31.53
2022-11-05T20:05:43.394Z,32.67
2022-11-05T20:08:12.085Z,30.50
2022-11-05T20:10:42.130Z,25.63
2022-11-05T20:13:14.274Z,27.53
2022-11-05T20:15:46.460Z,26.67
2022-11-05T20:18:16.471Z,26.77
2022-11-05T20:20:45.134Z,31.00
2022-11-05T20:23:14.407Z,30.93
2022-11-05T20:25:44.515Z,32.87
2022-11-05T20:28:13.236Z,29.93
2022-11-05T20:30:42.095Z,28.87
2022-11-05T20:33:10.574Z,26.43
2022-11-05T20:35:40.930Z,26.10
2022-11-05T20:38:09.823Z,26.90
2022-11-05T20:40:42.235Z,26.87
2022-11-05T20:43:12.046Z,25.23
2022-11-05T20:45:40.403Z,24.37
2022-11-05T20:48:08.952Z,24.87
2022-11-05T20:50:41.625Z,24.73
2022-11-05T20:53:10.358Z,24.80
2022-11-05T20:55:44.152Z,28.93
2022-11-05T20:58:15.259Z,29.63
2022-11-05T21:00:50.053Z,25.13
2022-11-05T21:03:19.036Z,27.17
2022-11-05T21:05:48.215Z,28.53
2022-11-05T21:08:16.820Z,28.33
2022-11-05T21:10:51.006Z,28.60
2022-11-05T21:13:21.347Z,29.13
2022-11-05T21:15:52.156Z,34.00
2022-11-05T21:18:23.903Z,30.93
2022-11-05T21:20:52.996Z,33.30
2022-11-05T21:23:22.010Z,33.63
2022-11-05T21:25:50.457Z,32.10
2022-11-05T21:28:21.351Z,31.57
2022-11-05T21:30:50.041Z,30.10
2022-11-05T21:33:19.802Z,33.60
2022-11-05T21:35:50.247Z,32.30
2022-11-05T21:38:19.362Z,29.83
2022-11-05T21:40:48.351Z,39.10
2022-11-05T21:43:16.986Z,35.53
2022-11-05T21:45:46.988Z,41.07
2022-11-05T21:48:16.092Z,50.93
2022-11-05T21:51:07.188Z,43.40
2022-11-05T21:53:53.132Z,40.10
2022-11-05T21:56:42.570Z,37.37
2022-11-05T21:59:30.725Z,36.20
2022-11-05T22:02:02.526Z,33.70
2022-11-05T22:04:32.123Z,30.60
2022-11-05T22:07:01.200Z,32.57
2022-11-05T22:09:32.770Z,31.20
2022-11-05T22:12:01.818Z,32.27
2022-11-05T22:14:31.283Z,32.60
2022-11-05T22:17:01.297Z,30.73
2022-11-05T22:19:30.690Z,34.00
2022-11-05T22:21:58.943Z,29.23
2022-11-05T22:24:28.041Z,31.50
2022-11-05T22:26:56.305Z,32.57
2022-11-05T22:29:24.746Z,32.63
2022-11-05T22:31:53.033Z,36.07
2022-11-05T22:34:22.685Z,35.13
2022-11-05T22:36:50.981Z,35.20
2022-11-05T22:39:19.366Z,31.97
2022-11-05T22:41:47.843Z,30.70
2022-11-05T22:44:17.442Z,33.73
2022-11-05T22:46:45.727Z,31.20
2022-11-05T22:49:14.278Z,28.23
2022-11-05T22:51:44.327Z,30.23
2022-11-05T22:54:13.019Z,28.37
2022-11-05T22:56:44.072Z,27.50
2022-11-05T22:59:14.710Z,24.63
2022-11-05T23:01:44.071Z,30.60
2022-11-05T23:04:13.321Z,28.80
2022-11-05T23:07:00.307Z,29.33
2022-11-05T23:09:48.992Z,25.30
2022-11-05T23:12:24.318Z,25.83
2022-11-05T23:14:53.192Z,28.10
2022-11-05T23:17:39.678Z,27.73
2022-11-05T23:20:29.432Z,26.83
2022-11-05T23:23:17.237Z,28.73
2022-11-05T23:25:46.052Z,20.10
2022-11-05T23:28:15.406Z,24.40
2022-11-05T23:30:59.391Z,27.67
2022-11-05T23:33:28.222Z,26.37
2022-11-05T23:36:14.181Z,24.93
2022-11-05T23:38:43.848Z,21.53
2022-11-05T23:41:29.335Z,21.00
2022-11-05T23:44:14.947Z,21.47
2022-11-05T23:47:00.463Z,20.90
2022-11-05T23:49:28.794Z,20.67
2022-11-05T23:51:57.047Z,23.73
2022-11-05T23:54:27.180Z,21.73
2022-11-05T23:56:55.410Z,21.27
2022-11-05T23:59:23.878Z,20.67
